Terminal Aerodrome Forecast
Issued by NWS

Home | Current Version | Previous Version | Text Only | Print | Product List | Glossary On
Versions: 1 2 3 4 5 6 7 8 9 10 11 12 13 14 15 16 17
698
FTUS43 KLSX 250520
TAFUIN
TAF
KUIN 250520Z 2506/2606 35005KT P6SM VCSH BKN080
     FM250800 35006KT P6SM BKN080
     FM251500 03008KT P6SM SCT250=

USA.gov is the U.S. government's official web portal to all federal, state and local government web resources and services.